首页
METAR-TAF:

METAR-TAF

机场 :

加蒂諾, 魁北克, 加拿大

纬度: 45-31N, 经度: 075-34W, 海拔: 64米

当前天气观测

该预报发布于24分钟前的21:00 UTC
风速13节,风向西北,有时为18节阵风
温度 19°C
湿度 73%
气压 1009 hPa
能見度: 24.1公里
少量云层高于3500英尺, 塔状积云.
散云层高于8600英尺
多云层高于13000英尺
多云层高于18000英尺
多云层高于24000英尺

METAR: CYND 062100Z 31013G18KT 15SM FEW035TCU SCT086 BKN130 BKN180 BKN240 19/14 A2979 RMK TCU2AC2AC1AC1CI1 SLP091 DENSITY ALT 1000FT

时间: 17:24 (21:24 UTC)

预报

该预报发布于3小时和46分钟前的17:38 UTC
预报有效从06日的 18点(UTC)到 07日的 01点(UTC)
风速10节,风向西,有时为20节阵风
能見度: 10公里
多云层高于6000英尺
小阵雨
短暂存在
从 06日的 18点(UTC)到 06日的 20点(UTC)
风速15节,风向多变,有时为32节阵风
能見度: 3.2公里
多云层高于2000英尺
阴天层高于5000英尺, 积雨云.
雷暴, 雨, 轻雾
从 06日的 2000点(UTC)
风速10节,风向西,有时为20节阵风
能見度: 10公里
多云层高于6000英尺
小阵雨
几率 30%
从 06日的 20点(UTC)到 06日的 23点(UTC)
风速15节,风向多变,有时为25节阵风
能見度: 3.2公里
多云层高于2000英尺
阴天层高于5000英尺, 积雨云.
雷暴, 雨, 轻雾
从 06日的 2300点(UTC)
风速10节,风向北转西北,有时为20节阵风
能見度: 10公里
多云层高于5000英尺

TAF: CYND 061738Z 0618/0701 27010G20KT P6SM -SHRA BKN060 TEMPO 0618/0620 VRB15G32KT 2SM TSRA BR BKN020 OVC050CB FM062000 26010G20KT P6SM -SHRA BKN060 PROB30 0620/0623 VRB15G25KT 2SM TSRA BR BKN020 OVC050CB FM062300 34010G20KT P6SM BKN050 RMK NXT FCST WILL BE ISSUED AT 071245Z

超过4000个机场的气象观测和天气预报(METAR&TAF报告)。

可查询的气象台以黄色和红色小点在地图上表示。

将鼠标移到小点上方,可查看气象台名称。

然后点击查看天气观测和预报。

如需切换地图:点击带黑十字的绿色按钮放大地图;点击带横线的绿色按钮缩小地图;或者点击绿色箭头查看邻近地区的地图。


METAR-TAF: